createdAt,value
2023-02-11T00:01:33.073Z,102205.43
2023-02-11T00:04:02.040Z,102199.36
2023-02-11T00:06:31.995Z,102204.96
2023-02-11T00:09:00.637Z,102199.17
2023-02-11T00:11:32.271Z,102201.45
2023-02-11T00:14:03.034Z,102197.43
2023-02-11T00:16:32.561Z,102195.07
2023-02-11T00:19:02.454Z,102198.77
2023-02-11T00:21:30.432Z,102198.40
2023-02-11T00:24:01.772Z,102195.06
2023-02-11T00:26:32.638Z,102188.52
2023-02-11T00:29:01.954Z,102191.14
2023-02-11T00:31:33.297Z,102195.05
2023-02-11T00:34:01.341Z,102199.11
2023-02-11T00:36:30.443Z,102200.20
2023-02-11T00:38:59.372Z,102195.80
2023-02-11T00:41:27.372Z,102184.05
2023-02-11T00:43:55.495Z,102177.39
2023-02-11T00:46:23.622Z,102173.29
2023-02-11T00:48:53.425Z,102168.46
2023-02-11T00:51:22.625Z,102170.19
2023-02-11T00:53:52.471Z,102163.42
2023-02-11T00:56:21.068Z,102161.11
2023-02-11T00:58:48.823Z,102154.33
2023-02-11T01:01:18.510Z,102146.40
2023-02-11T01:03:47.132Z,102131.29
2023-02-11T01:06:16.031Z,102119.42
2023-02-11T01:08:44.502Z,102109.59
2023-02-11T01:11:19.355Z,102100.19
2023-02-11T01:13:48.772Z,102094.21
2023-02-11T01:16:17.946Z,102073.42
2023-02-11T01:18:47.313Z,102056.61
2023-02-11T01:21:16.227Z,102044.59
2023-02-11T01:23:44.246Z,102037.83
2023-02-11T01:26:13.778Z,102024.93
2023-02-11T01:28:41.844Z,102020.91
2023-02-11T01:31:09.655Z,102023.52
2023-02-11T01:33:37.704Z,102020.81
2023-02-11T01:36:08.035Z,102020.17
2023-02-11T01:38:36.755Z,102015.51
2023-02-11T01:41:10.346Z,102019.86
2023-02-11T01:43:47.524Z,102026.84
2023-02-11T01:46:38.400Z,102017.54
2023-02-11T01:49:14.896Z,102020.28
2023-02-11T01:51:59.172Z,102035.16
2023-02-11T01:54:50.721Z,102045.83
2023-02-11T01:57:23.518Z,102062.52
2023-02-11T02:00:07.272Z,102065.52
2023-02-11T02:03:00.777Z,102067.57
2023-02-11T02:05:35.107Z,102071.41
2023-02-11T02:08:12.179Z,102075.32
2023-02-11T02:10:44.605Z,102087.85
2023-02-11T02:13:13.015Z,102097.85
2023-02-11T02:15:58.309Z,102098.16
2023-02-11T02:18:46.452Z,102098.42
2023-02-11T02:21:44.879Z,102082.70
2023-02-11T02:24:37.849Z,102074.17
2023-02-11T02:27:30.175Z,102068.58
2023-02-11T02:30:22.916Z,102045.20
2023-02-11T02:33:28.666Z,102036.13
2023-02-11T02:36:14.832Z,102032.28
2023-02-11T02:38:55.728Z,102025.77
2023-02-11T02:41:29.033Z,102018.80
2023-02-11T02:43:56.823Z,102024.09
2023-02-11T02:46:24.829Z,102013.80
2023-02-11T02:48:54.563Z,102005.65
2023-02-11T02:51:47.949Z,101996.71
2023-02-11T02:54:24.971Z,101990.61
2023-02-11T02:56:56.340Z,101987.90
2023-02-11T02:59:27.187Z,101973.60
2023-02-11T03:02:11.028Z,101972.17
2023-02-11T03:05:04.161Z,101963.98
2023-02-11T03:07:38.140Z,101973.22
2023-02-11T03:10:24.295Z,101981.98
2023-02-11T03:12:54.397Z,101993.80
2023-02-11T03:15:25.493Z,101990.44
2023-02-11T03:17:56.291Z,101981.34
2023-02-11T03:20:24.274Z,101976.25
2023-02-11T03:23:03.371Z,101972.02
2023-02-11T03:25:37.485Z,101977.80
2023-02-11T03:28:13.941Z,101977.10
2023-02-11T03:30:50.211Z,101969.81
2023-02-11T03:33:29.507Z,101967.89
2023-02-11T03:36:02.426Z,101957.72
2023-02-11T03:38:35.142Z,101952.64
2023-02-11T03:41:07.058Z,101943.64
2023-02-11T03:43:40.935Z,101940.33
2023-02-11T03:46:11.010Z,101944.55
2023-02-11T03:48:46.074Z,101939.66
2023-02-11T03:51:15.950Z,101924.73
2023-02-11T03:53:47.226Z,101917.43
2023-02-11T03:56:19.699Z,101914.65
2023-02-11T03:58:49.243Z,101908.81
2023-02-11T04:01:17.229Z,101902.20
2023-02-11T04:03:45.240Z,101898.16
2023-02-11T04:06:13.116Z,101891.70
2023-02-11T04:08:41.035Z,101889.11
2023-02-11T04:11:09.105Z,101888.84
2023-02-11T04:13:37.005Z,101881.55
2023-02-11T04:16:05.163Z,101882.51
2023-02-11T04:18:33.110Z,101878.00
2023-02-11T04:21:00.982Z,101870.00
2023-02-11T04:23:29.320Z,101859.95
2023-02-11T04:25:57.161Z,101852.98
2023-02-11T04:28:26.955Z,101851.52
2023-02-11T04:30:56.311Z,101848.30
2023-02-11T04:33:24.981Z,101844.66
2023-02-11T04:35:53.022Z,101839.95
2023-02-11T04:38:23.978Z,101839.90
2023-02-11T04:40:51.857Z,101839.95
2023-02-11T04:43:19.853Z,101844.56
2023-02-11T04:45:47.816Z,101842.59
2023-02-11T04:48:15.880Z,101842.00
2023-02-11T04:50:43.691Z,101831.14
2023-02-11T04:53:11.721Z,101823.83
2023-02-11T04:55:39.652Z,101824.51
2023-02-11T04:58:07.609Z,101819.54
2023-02-11T05:00:35.428Z,101819.33
2023-02-11T05:03:03.392Z,101825.77
2023-02-11T05:05:31.636Z,101830.05
2023-02-11T05:07:59.453Z,101826.65
2023-02-11T05:10:27.604Z,101821.27
2023-02-11T05:12:56.190Z,101820.63
2023-02-11T05:15:24.265Z,101822.76
2023-02-11T05:17:52.182Z,101817.23
2023-02-11T05:20:20.212Z,101814.26
2023-02-11T05:22:48.503Z,101804.10
2023-02-11T05:25:16.405Z,101795.94
2023-02-11T05:27:44.272Z,101786.66
2023-02-11T05:30:12.626Z,101785.91
2023-02-11T05:32:40.498Z,101784.56
2023-02-11T05:35:09.528Z,101788.52
2023-02-11T05:37:37.386Z,101781.39
2023-02-11T05:40:06.054Z,101783.85
2023-02-11T05:42:34.099Z,101777.67
2023-02-11T05:45:01.957Z,101773.70
2023-02-11T05:47:30.155Z,101774.80
2023-02-11T05:49:58.086Z,101783.33
2023-02-11T05:52:26.023Z,101780.34
2023-02-11T05:54:53.988Z,101778.86
2023-02-11T05:57:21.822Z,101766.87
2023-02-11T05:59:49.660Z,101768.64
2023-02-11T06:02:17.763Z,101759.67
2023-02-11T06:04:45.709Z,101758.36
2023-02-11T06:07:13.811Z,101763.20
2023-02-11T06:09:41.746Z,101766.22
2023-02-11T06:12:09.574Z,101764.11
2023-02-11T06:14:37.433Z,101761.30
2023-02-11T06:17:05.378Z,101756.10
2023-02-11T06:19:33.353Z,101756.00
2023-02-11T06:22:01.261Z,101746.91
2023-02-11T06:24:51.343Z,101744.17
2023-02-11T06:27:19.069Z,101746.71
2023-02-11T06:29:48.003Z,101753.52
2023-02-11T06:32:36.996Z,101762.69
2023-02-11T06:35:03.864Z,101768.21
2023-02-11T06:37:31.797Z,101765.87
2023-02-11T06:39:59.599Z,101764.57
2023-02-11T06:42:27.581Z,101766.70
2023-02-11T06:44:55.560Z,101751.70
2023-02-11T06:47:23.380Z,101741.47
2023-02-11T06:49:51.303Z,101748.32
2023-02-11T06:52:19.193Z,101744.38
2023-02-11T06:54:47.130Z,101750.05
2023-02-11T06:57:15.094Z,101751.10
2023-02-11T06:59:42.966Z,101758.69
2023-02-11T07:02:11.146Z,101766.27
2023-02-11T07:04:39.170Z,101762.71
2023-02-11T07:07:07.102Z,101761.92
2023-02-11T07:09:35.189Z,101760.36
2023-02-11T07:12:03.335Z,101756.47
2023-02-11T07:14:31.339Z,101758.33
2023-02-11T07:16:59.253Z,101754.30
2023-02-11T07:19:27.262Z,101758.91
2023-02-11T07:21:55.272Z,101758.79
2023-02-11T07:24:23.559Z,101756.14
2023-02-11T07:26:51.622Z,101756.49
2023-02-11T07:29:19.528Z,101756.37
2023-02-11T07:31:47.534Z,101747.87
2023-02-11T07:34:15.648Z,101742.89
2023-02-11T07:36:46.467Z,101732.48
2023-02-11T07:39:17.545Z,101723.85
2023-02-11T07:41:47.874Z,101724.89
2023-02-11T07:44:15.879Z,101722.66
2023-02-11T07:46:45.255Z,101724.79
2023-02-11T07:49:13.358Z,101723.67
2023-02-11T07:51:43.073Z,101723.59
2023-02-11T07:54:11.502Z,101719.55
2023-02-11T07:56:39.415Z,101718.89
2023-02-11T07:59:07.399Z,101720.53
2023-02-11T08:01:35.307Z,101715.66
2023-02-11T08:04:04.007Z,101714.85
2023-02-11T08:06:34.015Z,101708.92
2023-02-11T08:09:07.234Z,101706.05
2023-02-11T08:11:35.725Z,101713.95
2023-02-11T08:14:03.546Z,101714.69
2023-02-11T08:16:34.259Z,101716.42
2023-02-11T08:19:05.718Z,101719.16
2023-02-11T08:21:33.674Z,101722.54
2023-02-11T08:24:03.216Z,101730.23
2023-02-11T08:26:34.771Z,101740.92
2023-02-11T08:29:08.726Z,101739.08
2023-02-11T08:31:40.105Z,101745.87
2023-02-11T08:34:08.456Z,101741.42
2023-02-11T08:36:38.395Z,101737.80
2023-02-11T08:39:19.158Z,101731.95
2023-02-11T08:41:50.907Z,101730.90
2023-02-11T08:44:20.337Z,101734.46
2023-02-11T08:46:49.715Z,101730.76
2023-02-11T08:49:17.614Z,101732.96
2023-02-11T08:51:46.250Z,101723.81
2023-02-11T08:54:15.074Z,101716.48
2023-02-11T08:56:43.890Z,101711.52
2023-02-11T08:59:15.677Z,101713.86
2023-02-11T09:01:44.437Z,101715.15
2023-02-11T09:04:13.083Z,101715.70
2023-02-11T09:06:41.031Z,101710.67
2023-02-11T09:09:13.642Z,101707.48
2023-02-11T09:11:43.699Z,101703.36
2023-02-11T09:14:22.277Z,101695.39
2023-02-11T09:16:51.840Z,101684.33
2023-02-11T09:19:21.139Z,101688.90
2023-02-11T09:21:49.182Z,101689.19
2023-02-11T09:24:17.178Z,101694.96
2023-02-11T09:26:45.472Z,101695.69
2023-02-11T09:29:13.733Z,101726.31
2023-02-11T09:31:41.909Z,101722.14
2023-02-11T09:34:11.362Z,101716.16
2023-02-11T09:36:40.867Z,101706.13
2023-02-11T09:39:14.400Z,101711.64
2023-02-11T09:42:11.654Z,101705.36
2023-02-11T09:44:40.083Z,101701.31
2023-02-11T09:47:29.246Z,101709.18
2023-02-11T09:50:04.701Z,101702.06
2023-02-11T09:52:40.251Z,101706.19
2023-02-11T09:55:25.177Z,101709.98
2023-02-11T09:57:53.452Z,101703.58
2023-02-11T10:00:34.107Z,101696.08
2023-02-11T10:03:26.883Z,101691.69
2023-02-11T10:06:25.708Z,101686.67
2023-02-11T10:09:27.142Z,101682.48
2023-02-11T10:12:07.512Z,101701.91
2023-02-11T10:14:50.648Z,101698.41
2023-02-11T10:17:46.928Z,101705.20
2023-02-11T10:20:23.710Z,101684.79
2023-02-11T10:23:19.680Z,101660.54
2023-02-11T10:25:53.006Z,101679.17
2023-02-11T10:28:30.149Z,101677.50
2023-02-11T10:31:16.056Z,101673.64
2023-02-11T10:33:50.054Z,101674.50
2023-02-11T10:36:19.552Z,101659.45
2023-02-11T10:38:47.541Z,101651.59
2023-02-11T10:41:28.845Z,101648.17
2023-02-11T10:43:57.375Z,101640.86
2023-02-11T10:46:31.594Z,101639.15
2023-02-11T10:49:00.141Z,101636.88
2023-02-11T10:51:30.262Z,101643.08
2023-02-11T10:54:04.338Z,101641.35
2023-02-11T10:56:37.158Z,101639.98
2023-02-11T10:59:14.528Z,101617.38
2023-02-11T11:01:47.217Z,101606.84
2023-02-11T11:04:30.772Z,101612.67
2023-02-11T11:07:23.680Z,101627.86
2023-02-11T11:09:59.791Z,101607.95
2023-02-11T11:12:40.308Z,101597.13
2023-02-11T11:15:22.176Z,101595.96
2023-02-11T11:17:52.112Z,101591.58
2023-02-11T11:20:25.376Z,101579.70
2023-02-11T11:23:09.382Z,101564.85
2023-02-11T11:25:41.613Z,101551.29
2023-02-11T11:28:24.151Z,101559.63
2023-02-11T11:30:55.328Z,101562.64
2023-02-11T11:33:28.179Z,101569.23
2023-02-11T11:35:59.056Z,101559.13
2023-02-11T11:38:31.896Z,101568.25
2023-02-11T11:41:24.196Z,101564.06
2023-02-11T11:43:59.196Z,101555.19
2023-02-11T11:46:33.647Z,101559.69
2023-02-11T11:49:23.596Z,101550.84
2023-02-11T11:52:11.557Z,101530.95
2023-02-11T11:54:43.621Z,101535.76
2023-02-11T11:57:18.520Z,101552.38
2023-02-11T11:59:46.505Z,101549.89
2023-02-11T12:02:20.406Z,101560.34
2023-02-11T12:05:02.867Z,101563.16
2023-02-11T12:07:40.345Z,101570.60
2023-02-11T12:10:14.214Z,101572.45
2023-02-11T12:12:53.761Z,101576.17
2023-02-11T12:15:41.490Z,101570.48
2023-02-11T12:18:33.356Z,101588.61
2023-02-11T12:21:01.182Z,101589.48
2023-02-11T12:24:01.505Z,101586.48
2023-02-11T12:27:17.778Z,101586.46
2023-02-11T12:30:17.254Z,101591.93
2023-02-11T12:32:59.456Z,101593.31
2023-02-11T12:35:33.402Z,101598.23
2023-02-11T12:38:40.045Z,101593.77
2023-02-11T12:41:50.595Z,101589.36
2023-02-11T12:44:47.062Z,101590.73
2023-02-11T12:47:36.886Z,101597.77
2023-02-11T12:50:22.977Z,101592.14
2023-02-11T12:53:04.519Z,101600.61
2023-02-11T12:55:40.213Z,101599.44
2023-02-11T12:58:16.855Z,101597.20
2023-02-11T13:00:55.887Z,101600.91
2023-02-11T13:03:53.850Z,101603.59
2023-02-11T13:07:02.853Z,101605.09
2023-02-11T13:09:38.852Z,101607.18
2023-02-11T13:12:26.269Z,101606.52
2023-02-11T13:14:59.794Z,101600.47
2023-02-11T13:17:40.913Z,101604.18
2023-02-11T13:20:38.410Z,101608.11
2023-02-11T13:23:21.186Z,101610.27
2023-02-11T13:26:10.088Z,101612.11
2023-02-11T13:29:04.832Z,101614.58
2023-02-11T13:31:32.936Z,101620.05
2023-02-11T13:34:01.008Z,101614.09
2023-02-11T13:36:32.865Z,101614.16
2023-02-11T13:39:04.552Z,101618.58
2023-02-11T13:41:36.754Z,101611.73
2023-02-11T13:44:09.308Z,101619.52
2023-02-11T13:47:00.049Z,101618.08
2023-02-11T13:49:42.751Z,101622.17
2023-02-11T13:52:25.535Z,101619.15
2023-02-11T13:54:56.963Z,101623.59
2023-02-11T13:57:33.090Z,101626.85
2023-02-11T14:00:36.669Z,101631.32
2023-02-11T14:03:29.194Z,101630.60
2023-02-11T14:06:28.447Z,101628.00
2023-02-11T14:09:10.314Z,101629.37
2023-02-11T14:11:41.813Z,101632.04
2023-02-11T14:14:21.923Z,101627.48
2023-02-11T14:17:28.430Z,101629.20
2023-02-11T14:19:57.265Z,101626.90
2023-02-11T14:22:53.642Z,101626.54
2023-02-11T14:25:26.683Z,101629.29
2023-02-11T14:28:27.083Z,101635.36
2023-02-11T14:31:14.904Z,101635.47
2023-02-11T14:33:58.335Z,101636.94
2023-02-11T14:36:43.892Z,101637.73
2023-02-11T14:39:52.784Z,101640.91
2023-02-11T14:42:26.655Z,101646.98
2023-02-11T14:44:58.641Z,101653.31
2023-02-11T14:47:35.661Z,101659.79
2023-02-11T14:50:04.964Z,101660.91
2023-02-11T14:52:37.379Z,101662.30
2023-02-11T14:55:17.774Z,101666.59
2023-02-11T14:57:49.502Z,101671.58
2023-02-11T15:00:21.090Z,101672.98
2023-02-11T15:02:49.563Z,101682.30
2023-02-11T15:05:29.122Z,101687.77
2023-02-11T15:08:02.039Z,101696.90
2023-02-11T15:10:35.537Z,101703.73
2023-02-11T15:13:05.492Z,101708.80
2023-02-11T15:15:36.552Z,101706.70
2023-02-11T15:18:05.373Z,101702.16
2023-02-11T15:20:34.003Z,101704.20
2023-02-11T15:23:07.899Z,101707.46
2023-02-11T15:25:44.061Z,101707.82
2023-02-11T15:28:21.117Z,101711.20
2023-02-11T15:30:57.969Z,101709.04
2023-02-11T15:33:30.110Z,101708.80
2023-02-11T15:36:02.466Z,101706.54
2023-02-11T15:38:30.965Z,101702.05
2023-02-11T15:41:02.202Z,101706.44
2023-02-11T15:43:53.319Z,101701.18
2023-02-11T15:46:23.430Z,101700.17
2023-02-11T15:48:54.260Z,101707.78
2023-02-11T15:51:39.979Z,101713.02
2023-02-11T15:54:21.357Z,101724.27
2023-02-11T15:56:51.744Z,101721.40
2023-02-11T15:59:25.873Z,101729.30
2023-02-11T16:01:55.701Z,101729.34
2023-02-11T16:04:26.402Z,101736.61
2023-02-11T16:06:55.694Z,101739.82
2023-02-11T16:09:35.438Z,101742.05
2023-02-11T16:12:23.623Z,101747.15
2023-02-11T16:14:51.685Z,101755.88
2023-02-11T16:17:19.592Z,101753.94
2023-02-11T16:19:50.883Z,101760.43
2023-02-11T16:22:30.332Z,101760.67
2023-02-11T16:25:00.064Z,101756.54
2023-02-11T16:27:41.706Z,101761.40
2023-02-11T16:30:38.146Z,101762.70
2023-02-11T16:33:06.400Z,101770.94
2023-02-11T16:35:34.277Z,101778.48
2023-02-11T16:38:02.225Z,101783.90
2023-02-11T16:40:30.209Z,101788.33
2023-02-11T16:42:58.212Z,101796.59
2023-02-11T16:45:26.884Z,101798.73
2023-02-11T16:47:54.908Z,101811.08
2023-02-11T16:50:25.450Z,101809.84
2023-02-11T16:52:53.778Z,101813.38
2023-02-11T16:55:22.368Z,101813.88
2023-02-11T16:57:50.525Z,101814.16
2023-02-11T17:00:18.908Z,101817.46
2023-02-11T17:02:46.843Z,101826.02
2023-02-11T17:05:22.991Z,101829.23
2023-02-11T17:07:50.852Z,101827.73
2023-02-11T17:10:22.295Z,101840.48
2023-02-11T17:12:51.282Z,101845.60
2023-02-11T17:15:19.267Z,101847.55
2023-02-11T17:17:48.247Z,101851.46
2023-02-11T17:20:16.618Z,101858.46
2023-02-11T17:22:44.489Z,101864.20
2023-02-11T17:25:12.596Z,101866.31
2023-02-11T17:27:40.798Z,101868.96
2023-02-11T17:30:10.059Z,101877.80
2023-02-11T17:32:38.304Z,101880.77
2023-02-11T17:35:07.366Z,101883.30
2023-02-11T17:37:35.217Z,101885.69
2023-02-11T17:40:03.309Z,101888.42
2023-02-11T17:42:31.543Z,101891.18
2023-02-11T17:44:59.375Z,101888.86
2023-02-11T17:47:27.346Z,101891.02
2023-02-11T17:49:55.272Z,101896.59
2023-02-11T17:52:24.437Z,101897.77
2023-02-11T17:54:52.262Z,101895.47
2023-02-11T17:57:20.320Z,101899.84
2023-02-11T17:59:48.226Z,101902.11
2023-02-11T18:02:16.029Z,101908.77
2023-02-11T18:04:44.088Z,101910.98
2023-02-11T18:07:12.352Z,101905.09
2023-02-11T18:09:41.090Z,101905.04
2023-02-11T18:12:10.796Z,101910.24
2023-02-11T18:14:40.795Z,101918.00
2023-02-11T18:17:09.350Z,101929.22
2023-02-11T18:19:37.716Z,101937.19
2023-02-11T18:22:05.731Z,101945.69
2023-02-11T18:24:33.687Z,101946.79
2023-02-11T18:27:01.499Z,101947.60
2023-02-11T18:29:29.806Z,101949.17
2023-02-11T18:31:58.316Z,101952.96
2023-02-11T18:34:26.546Z,101949.55
2023-02-11T18:36:54.407Z,101949.44
2023-02-11T18:39:24.339Z,101945.50
2023-02-11T18:41:56.810Z,101944.10
2023-02-11T18:44:26.685Z,101950.67
2023-02-11T18:46:54.852Z,101953.25
2023-02-11T18:49:22.849Z,101955.27
2023-02-11T18:51:50.916Z,101954.14
2023-02-11T18:54:18.905Z,101961.29
2023-02-11T18:56:46.799Z,101968.95
2023-02-11T18:59:15.194Z,101976.05
2023-02-11T19:01:46.870Z,101972.52
2023-02-11T19:04:19.833Z,101974.98
2023-02-11T19:06:49.817Z,101981.20
2023-02-11T19:09:20.540Z,101979.11
2023-02-11T19:11:51.389Z,101982.58
2023-02-11T19:14:31.974Z,101989.26
2023-02-11T19:17:06.787Z,101987.19
2023-02-11T19:19:36.345Z,101998.02
2023-02-11T19:22:10.507Z,102002.34
2023-02-11T19:24:39.301Z,102004.25
2023-02-11T19:27:07.284Z,102008.30
2023-02-11T19:29:35.520Z,102025.12
2023-02-11T19:32:06.008Z,102023.73
2023-02-11T19:34:41.235Z,102023.27
2023-02-11T19:37:12.821Z,102022.36
2023-02-11T19:39:42.463Z,102030.49
2023-02-11T19:42:11.307Z,102025.64
2023-02-11T19:44:39.349Z,102035.81
2023-02-11T19:47:07.535Z,102041.60
2023-02-11T19:49:35.366Z,102041.13
2023-02-11T19:52:03.544Z,102038.84
2023-02-11T19:54:31.550Z,102035.30
2023-02-11T19:56:59.566Z,102035.73
2023-02-11T19:59:27.623Z,102047.05
2023-02-11T20:01:55.507Z,102043.58
2023-02-11T20:04:25.200Z,102043.97
2023-02-11T20:06:53.134Z,102044.91
2023-02-11T20:09:21.859Z,102049.92
2023-02-11T20:11:50.085Z,102048.16
2023-02-11T20:14:18.250Z,102061.96
2023-02-11T20:16:49.732Z,102060.38
2023-02-11T20:19:21.677Z,102058.41
2023-02-11T20:21:53.765Z,102066.60
2023-02-11T20:24:22.616Z,102080.36
2023-02-11T20:26:55.258Z,102087.08
2023-02-11T20:29:24.584Z,102096.48
2023-02-11T20:31:54.042Z,102102.52
2023-02-11T20:34:22.573Z,102101.69
2023-02-11T20:36:54.295Z,102102.77
2023-02-11T20:39:25.297Z,102106.48
2023-02-11T20:41:54.547Z,102110.06
2023-02-11T20:44:23.232Z,102111.30
2023-02-11T20:46:54.325Z,102115.41
2023-02-11T20:49:24.478Z,102125.58
2023-02-11T20:51:54.042Z,102129.29
2023-02-11T20:54:24.355Z,102139.70
2023-02-11T20:56:54.073Z,102144.98
2023-02-11T20:59:22.993Z,102155.58
2023-02-11T21:01:54.309Z,102157.16
2023-02-11T21:04:25.618Z,102158.77
2023-02-11T21:06:56.996Z,102161.64
2023-02-11T21:09:28.577Z,102162.55
2023-02-11T21:11:57.287Z,102166.59
2023-02-11T21:14:26.167Z,102169.88
2023-02-11T21:16:54.587Z,102181.83
2023-02-11T21:19:22.535Z,102192.07
2023-02-11T21:21:50.479Z,102193.38
2023-02-11T21:24:18.534Z,102193.19
2023-02-11T21:26:46.607Z,102194.20
2023-02-11T21:29:14.527Z,102191.02
2023-02-11T21:31:43.138Z,102193.05
2023-02-11T21:34:11.251Z,102193.54
2023-02-11T21:36:39.262Z,102197.27
2023-02-11T21:39:07.557Z,102201.95
2023-02-11T21:41:35.572Z,102213.05
2023-02-11T21:44:03.443Z,102216.65
2023-02-11T21:46:31.530Z,102215.59
2023-02-11T21:49:00.531Z,102215.63
2023-02-11T21:51:28.749Z,102223.02
2023-02-11T21:53:59.796Z,102236.36
2023-02-11T21:56:29.715Z,102236.85
2023-02-11T21:58:59.644Z,102232.48
2023-02-11T22:01:33.299Z,102229.61
2023-02-11T22:04:01.249Z,102228.27
2023-02-11T22:06:31.795Z,102228.48
2023-02-11T22:09:04.678Z,102224.65
2023-02-11T22:11:32.963Z,102229.38
2023-02-11T22:14:00.910Z,102235.73
2023-02-11T22:16:30.176Z,102235.13
2023-02-11T22:18:59.069Z,102244.35
2023-02-11T22:21:27.399Z,102246.73
2023-02-11T22:23:56.342Z,102251.90
2023-02-11T22:26:27.000Z,102252.73
2023-02-11T22:28:55.358Z,102255.14
2023-02-11T22:31:32.705Z,102265.03
2023-02-11T22:34:01.742Z,102276.20
2023-02-11T22:36:35.807Z,102273.55
2023-02-11T22:39:10.725Z,102273.67
2023-02-11T22:41:41.357Z,102277.24
2023-02-11T22:44:09.943Z,102286.88
2023-02-11T22:46:38.679Z,102298.11
2023-02-11T22:49:07.563Z,102310.67
2023-02-11T22:51:35.542Z,102314.35
2023-02-11T22:54:06.480Z,102318.60
2023-02-11T22:56:35.127Z,102324.63
2023-02-11T22:59:08.249Z,102327.98
2023-02-11T23:01:36.543Z,102333.04
2023-02-11T23:04:06.819Z,102342.38
2023-02-11T23:06:35.344Z,102336.77
2023-02-11T23:09:08.517Z,102332.48
2023-02-11T23:11:36.454Z,102336.75
2023-02-11T23:14:04.461Z,102343.42
2023-02-11T23:16:34.888Z,102343.20
2023-02-11T23:19:06.121Z,102344.21
2023-02-11T23:21:36.544Z,102341.54
2023-02-11T23:24:11.616Z,102342.84
2023-02-11T23:26:41.703Z,102339.52
2023-02-11T23:29:11.222Z,102341.65
2023-02-11T23:31:43.465Z,102343.16
2023-02-11T23:34:12.840Z,102347.92
2023-02-11T23:36:40.638Z,102345.56
2023-02-11T23:39:08.623Z,102352.91
2023-02-11T23:41:36.729Z,102355.91
2023-02-11T23:44:04.772Z,102360.41
2023-02-11T23:46:32.760Z,102363.39
2023-02-11T23:49:00.551Z,102367.48
2023-02-11T23:51:28.621Z,102374.45
2023-02-11T23:53:56.830Z,102377.20
2023-02-11T23:56:27.169Z,102377.77
2023-02-11T23:58:58.442Z,102381.80
